createdAt,value
2023-11-11T00:00:09.600Z,65.70
2023-11-11T00:02:36.140Z,65.90
2023-11-11T00:05:02.768Z,65.60
2023-11-11T00:07:29.353Z,65.50
2023-11-11T00:09:55.874Z,65.40
2023-11-11T00:12:22.410Z,65.50
2023-11-11T00:14:48.933Z,65.80
2023-11-11T00:17:15.465Z,65.40
2023-11-11T00:19:45.834Z,65.60
2023-11-11T00:22:12.378Z,65.70
2023-11-11T00:24:39.750Z,65.60
2023-11-11T00:27:06.314Z,65.50
2023-11-11T00:29:32.848Z,65.60
2023-11-11T00:31:59.415Z,65.60
2023-11-11T00:34:25.919Z,65.60
2023-11-11T00:36:52.449Z,65.60
2023-11-11T00:39:18.998Z,65.40
2023-11-11T00:41:45.544Z,65.40
2023-11-11T00:44:12.099Z,65.50
2023-11-11T00:46:38.676Z,65.40
2023-11-11T00:49:05.204Z,65.30
2023-11-11T00:51:31.750Z,65.50
2023-11-11T00:53:58.295Z,65.30
2023-11-11T00:56:24.789Z,65.40
2023-11-11T00:58:51.288Z,65.40
2023-11-11T01:01:17.817Z,65.30
2023-11-11T01:03:44.473Z,65.40
2023-11-11T01:06:11.084Z,65.20
2023-11-11T01:08:37.597Z,65.20
2023-11-11T01:11:04.117Z,65.30
2023-11-11T01:13:30.653Z,65.10
2023-11-11T01:15:57.172Z,65.10
2023-11-11T01:18:23.685Z,65.20
2023-11-11T01:20:50.220Z,65.40
2023-11-11T01:23:16.756Z,66.30
2023-11-11T01:25:43.274Z,65.60
2023-11-11T01:28:09.840Z,65.40
2023-11-11T01:30:36.485Z,65.50
2023-11-11T01:33:03.132Z,65.40
2023-11-11T01:35:29.677Z,65.50
2023-11-11T01:37:56.226Z,65.40
2023-11-11T01:40:22.738Z,65.40
2023-11-11T01:42:49.253Z,65.50
2023-11-11T01:45:15.761Z,65.30
2023-11-11T01:47:42.335Z,65.40
2023-11-11T01:50:08.925Z,65.40
2023-11-11T01:52:35.444Z,65.30
2023-11-11T01:55:01.990Z,65.40
2023-11-11T01:57:28.540Z,65.50
2023-11-11T01:59:55.086Z,65.50
2023-11-11T02:02:21.660Z,65.60
2023-11-11T02:04:48.307Z,65.60
2023-11-11T02:07:14.923Z,65.40
2023-11-11T02:09:41.461Z,65.40
2023-11-11T02:12:08.030Z,65.40
2023-11-11T02:14:34.657Z,65.40
2023-11-11T02:17:01.175Z,65.70
2023-11-11T02:19:27.702Z,65.70
2023-11-11T02:21:54.215Z,65.60
2023-11-11T02:24:20.758Z,65.40
2023-11-11T02:26:51.854Z,65.40
2023-11-11T02:29:18.373Z,65.60
2023-11-11T02:31:44.886Z,65.60
2023-11-11T02:34:11.448Z,65.70
2023-11-11T02:36:38.392Z,65.70
2023-11-11T02:39:05.750Z,65.80
2023-11-11T02:41:32.275Z,65.60
2023-11-11T02:43:58.777Z,65.70
2023-11-11T02:46:25.339Z,65.70
2023-11-11T02:48:51.867Z,65.80
2023-11-11T02:51:18.499Z,66.00
2023-11-11T02:53:45.066Z,65.80
2023-11-11T02:56:11.580Z,66.00
2023-11-11T02:58:38.136Z,66.00
2023-11-11T03:01:04.679Z,65.90
2023-11-11T03:03:31.379Z,66.10
2023-11-11T03:05:57.948Z,65.90
2023-11-11T03:08:24.486Z,65.90
2023-11-11T03:10:51.043Z,65.90
2023-11-11T03:13:17.592Z,66.00
2023-11-11T03:15:44.188Z,65.80
2023-11-11T03:18:10.920Z,66.00
2023-11-11T03:20:37.520Z,65.80
2023-11-11T03:23:04.061Z,66.00
2023-11-11T03:25:30.598Z,65.70
2023-11-11T03:27:57.145Z,65.90
2023-11-11T03:30:23.691Z,66.20
2023-11-11T03:32:50.272Z,65.90
2023-11-11T03:35:16.797Z,66.00
2023-11-11T03:37:43.436Z,65.90
2023-11-11T03:40:09.952Z,65.70
2023-11-11T03:42:36.549Z,65.80
2023-11-11T03:45:03.069Z,66.00
2023-11-11T03:47:29.602Z,65.90
2023-11-11T03:49:56.141Z,65.80
2023-11-11T03:52:22.666Z,65.70
2023-11-11T03:54:49.217Z,65.90
2023-11-11T03:57:15.765Z,65.80
2023-11-11T03:59:42.298Z,65.80
2023-11-11T04:02:08.822Z,65.90
2023-11-11T04:04:35.395Z,65.60
2023-11-11T04:07:01.920Z,65.80
2023-11-11T04:09:28.429Z,65.80
2023-11-11T04:11:54.975Z,65.80
2023-11-11T04:14:21.892Z,65.80
2023-11-11T04:16:48.417Z,65.90
2023-11-11T04:19:14.985Z,65.90
2023-11-11T04:21:41.511Z,65.90
2023-11-11T04:24:09.973Z,65.80
2023-11-11T04:26:36.501Z,65.70
2023-11-11T04:29:03.042Z,65.80
2023-11-11T04:31:29.589Z,65.80
2023-11-11T04:33:56.201Z,66.00
2023-11-11T04:36:22.761Z,65.90
2023-11-11T04:38:51.973Z,66.00
2023-11-11T04:41:18.501Z,66.00
2023-11-11T04:43:45.958Z,65.80
2023-11-11T04:46:16.011Z,65.80
2023-11-11T04:48:42.590Z,65.60
2023-11-11T04:51:09.125Z,65.90
2023-11-11T04:53:35.641Z,65.80
2023-11-11T04:56:02.147Z,65.60
2023-11-11T04:58:28.660Z,65.70
2023-11-11T05:00:55.195Z,65.70
2023-11-11T05:03:21.851Z,65.70
2023-11-11T05:05:52.091Z,65.50
2023-11-11T05:08:18.639Z,65.60
2023-11-11T05:10:45.135Z,65.60
2023-11-11T05:13:11.667Z,65.90
2023-11-11T05:15:38.281Z,65.80
2023-11-11T05:18:05.145Z,65.80
2023-11-11T05:20:31.680Z,65.80
2023-11-11T05:22:58.270Z,65.50
2023-11-11T05:25:24.790Z,65.90
2023-11-11T05:27:51.378Z,66.00
2023-11-11T05:30:17.969Z,65.80
2023-11-11T05:32:44.614Z,65.90
2023-11-11T05:35:11.237Z,65.90
2023-11-11T05:37:37.772Z,65.80
2023-11-11T05:40:04.292Z,65.70
2023-11-11T05:42:30.888Z,65.60
2023-11-11T05:44:57.417Z,65.50
2023-11-11T05:47:23.937Z,65.60
2023-11-11T05:49:51.981Z,65.60
2023-11-11T05:52:18.498Z,65.50
2023-11-11T05:54:45.033Z,65.70
2023-11-11T05:57:11.571Z,65.40
2023-11-11T05:59:38.097Z,65.40
2023-11-11T06:02:04.622Z,65.70
2023-11-11T06:04:31.178Z,65.70
2023-11-11T06:06:57.774Z,65.50
2023-11-11T06:09:24.364Z,65.80
2023-11-11T06:11:50.923Z,65.90
2023-11-11T06:14:17.474Z,65.80
2023-11-11T06:16:44.020Z,65.60
2023-11-11T06:19:10.567Z,65.80
2023-11-11T06:21:37.156Z,65.50
2023-11-11T06:24:03.749Z,65.50
2023-11-11T06:26:30.286Z,65.50
2023-11-11T06:28:56.821Z,65.60
2023-11-11T06:31:23.385Z,65.50
2023-11-11T06:33:50.087Z,65.50
2023-11-11T06:36:16.737Z,65.60
2023-11-11T06:38:46.068Z,65.60
2023-11-11T06:41:12.569Z,65.80
2023-11-11T06:43:40.067Z,65.80
2023-11-11T06:46:06.659Z,65.70
2023-11-11T06:48:33.306Z,65.80
2023-11-11T06:50:59.829Z,65.90
2023-11-11T06:53:26.362Z,65.80
2023-11-11T06:55:52.877Z,65.60
2023-11-11T06:58:19.399Z,65.70
2023-11-11T07:00:45.921Z,65.50
2023-11-11T07:03:12.514Z,65.60
2023-11-11T07:05:39.105Z,65.60
2023-11-11T07:08:05.638Z,65.50
2023-11-11T07:10:32.136Z,65.50
2023-11-11T07:12:58.717Z,65.50
2023-11-11T07:15:25.345Z,65.50
2023-11-11T07:17:51.912Z,65.40
2023-11-11T07:20:18.436Z,65.60
2023-11-11T07:22:44.958Z,65.50
2023-11-11T07:25:11.465Z,65.60
2023-11-11T07:27:38.039Z,65.80
2023-11-11T07:30:04.580Z,65.70
2023-11-11T07:32:31.100Z,65.60
2023-11-11T07:34:57.590Z,65.60
2023-11-11T07:37:24.091Z,65.60
2023-11-11T07:39:50.680Z,65.70
2023-11-11T07:42:17.220Z,65.70
2023-11-11T07:44:43.749Z,65.60
2023-11-11T07:47:10.264Z,65.40
2023-11-11T07:49:36.796Z,65.50
2023-11-11T07:52:03.327Z,65.20
2023-11-11T07:54:29.878Z,65.30
2023-11-11T07:56:56.409Z,65.10
2023-11-11T07:59:22.945Z,65.40
2023-11-11T08:01:52.174Z,65.40
2023-11-11T08:04:18.759Z,65.50
2023-11-11T08:06:45.359Z,65.50
2023-11-11T08:09:11.903Z,65.50
2023-11-11T08:11:38.465Z,65.60
2023-11-11T08:14:05.015Z,65.50
2023-11-11T08:16:31.582Z,65.50
2023-11-11T08:18:58.150Z,65.40
2023-11-11T08:21:24.691Z,65.30
2023-11-11T08:23:51.246Z,65.40
2023-11-11T08:26:17.751Z,65.50
2023-11-11T08:28:44.286Z,65.50
2023-11-11T08:31:10.904Z,65.50
2023-11-11T08:33:37.548Z,65.60
2023-11-11T08:36:04.087Z,65.80
2023-11-11T08:38:30.617Z,65.50
2023-11-11T08:40:57.245Z,65.60
2023-11-11T08:43:23.826Z,65.70
2023-11-11T08:45:50.356Z,65.50
2023-11-11T08:48:17.008Z,65.50
2023-11-11T08:50:43.591Z,65.50
2023-11-11T08:53:10.235Z,65.20
2023-11-11T08:55:36.735Z,65.50
2023-11-11T08:58:03.284Z,65.40
2023-11-11T09:00:29.935Z,65.20
2023-11-11T09:02:56.626Z,65.00
2023-11-11T09:05:23.187Z,65.30
2023-11-11T09:07:49.730Z,65.60
2023-11-11T09:10:22.223Z,65.50
2023-11-11T09:12:48.754Z,65.50
2023-11-11T09:15:15.283Z,65.50
2023-11-11T09:17:41.847Z,65.50
2023-11-11T09:20:08.491Z,65.40
2023-11-11T09:22:35.182Z,65.40
2023-11-11T09:25:01.764Z,65.30
2023-11-11T09:27:28.314Z,65.50
2023-11-11T09:29:54.877Z,65.60
2023-11-11T09:32:21.420Z,65.40
2023-11-11T09:34:47.960Z,65.50
2023-11-11T09:37:14.474Z,65.30
2023-11-11T09:39:41.058Z,65.40
2023-11-11T09:42:10.790Z,65.40
2023-11-11T09:47:07.833Z,65.50
2023-11-11T09:49:34.426Z,65.40
2023-11-11T09:52:01.024Z,65.40
2023-11-11T09:54:28.220Z,65.50
2023-11-11T09:59:24.145Z,65.50
2023-11-11T10:01:52.229Z,65.20
2023-11-11T10:04:18.910Z,65.40
2023-11-11T10:06:45.473Z,65.60
2023-11-11T10:09:12.020Z,65.50
2023-11-11T10:11:40.215Z,65.50
2023-11-11T10:14:06.740Z,65.20
2023-11-11T10:16:33.409Z,65.20
2023-11-11T10:19:00.033Z,65.30
2023-11-11T10:21:26.534Z,65.30
2023-11-11T10:23:53.048Z,65.40
2023-11-11T10:26:19.563Z,65.60
2023-11-11T10:28:46.099Z,65.50
2023-11-11T10:31:21.148Z,65.50
2023-11-11T10:33:52.265Z,65.40
2023-11-11T10:36:18.788Z,65.50
2023-11-11T10:38:45.303Z,65.50
2023-11-11T10:41:11.828Z,65.60
2023-11-11T10:43:38.335Z,65.60
2023-11-11T10:46:06.066Z,65.30
2023-11-11T10:48:32.644Z,66.10
2023-11-11T10:50:59.182Z,65.40
2023-11-11T10:53:25.706Z,65.70
2023-11-11T10:55:52.282Z,65.60
2023-11-11T10:58:18.877Z,65.40
2023-11-11T11:00:45.469Z,65.40
2023-11-11T11:03:12.046Z,65.40
2023-11-11T11:05:38.583Z,65.60
2023-11-11T11:08:10.499Z,65.40
2023-11-11T11:10:37.050Z,65.10
2023-11-11T11:13:03.589Z,65.40
2023-11-11T11:15:30.143Z,65.50
2023-11-11T11:17:56.745Z,65.50
2023-11-11T11:20:23.281Z,65.40
2023-11-11T11:22:49.816Z,65.60
2023-11-11T11:25:16.384Z,65.60
2023-11-11T11:27:42.908Z,65.50
2023-11-11T11:30:09.478Z,65.40
2023-11-11T11:32:35.991Z,65.40
2023-11-11T11:35:02.556Z,65.70
2023-11-11T11:37:29.122Z,65.70
2023-11-11T11:39:55.663Z,65.60
2023-11-11T11:42:22.166Z,65.60
2023-11-11T11:44:48.694Z,65.50
2023-11-11T11:47:15.299Z,65.60
2023-11-11T11:49:41.928Z,65.70
2023-11-11T11:52:08.463Z,65.60
2023-11-11T11:54:34.976Z,65.50
2023-11-11T11:57:01.502Z,65.30
2023-11-11T11:59:28.016Z,65.40
2023-11-11T12:01:54.694Z,65.40
2023-11-11T12:04:21.456Z,65.70
2023-11-11T12:06:48.079Z,65.80
2023-11-11T12:09:16.326Z,66.20
2023-11-11T12:11:42.849Z,65.60
2023-11-11T12:14:09.665Z,65.60
2023-11-11T12:16:40.628Z,65.80
2023-11-11T12:19:07.328Z,65.40
2023-11-11T12:21:33.839Z,65.60
2023-11-11T12:24:00.384Z,65.60
2023-11-11T12:26:26.882Z,65.60
2023-11-11T12:28:53.472Z,65.40
2023-11-11T12:31:20.159Z,65.40
2023-11-11T12:33:52.342Z,65.40
2023-11-11T12:36:18.857Z,65.40
2023-11-11T12:38:45.380Z,65.20
2023-11-11T12:41:11.915Z,65.40
2023-11-11T12:43:38.476Z,65.30
2023-11-11T12:46:05.028Z,65.20
2023-11-11T12:48:31.595Z,65.40
2023-11-11T12:50:58.098Z,65.40
2023-11-11T12:53:24.618Z,65.50
2023-11-11T12:55:51.168Z,65.20
2023-11-11T12:58:17.700Z,65.50
2023-11-11T13:00:44.221Z,65.60
2023-11-11T13:03:10.756Z,65.50
2023-11-11T13:05:37.308Z,65.50
2023-11-11T13:08:03.890Z,65.60
2023-11-11T13:10:30.464Z,65.50
2023-11-11T13:12:57.000Z,65.60
2023-11-11T13:15:23.518Z,65.70
2023-11-11T13:17:50.094Z,65.50
2023-11-11T13:20:16.746Z,65.30
2023-11-11T13:22:48.651Z,65.50
2023-11-11T13:25:16.411Z,65.60
2023-11-11T13:27:42.934Z,65.60
2023-11-11T13:30:09.456Z,65.50
2023-11-11T13:32:36.055Z,65.50
2023-11-11T13:35:02.658Z,65.50
2023-11-11T13:37:30.066Z,65.50
2023-11-11T13:39:57.286Z,65.40
2023-11-11T13:42:24.444Z,65.50
2023-11-11T13:44:50.991Z,65.60
2023-11-11T13:47:22.508Z,65.60
2023-11-11T13:49:49.076Z,65.60
2023-11-11T13:52:15.617Z,65.60
2023-11-11T13:54:42.116Z,65.70
2023-11-11T13:57:08.639Z,65.80
2023-11-11T13:59:35.161Z,65.90
2023-11-11T14:02:01.784Z,65.90
2023-11-11T14:04:28.509Z,65.90
2023-11-11T14:06:55.104Z,65.80
2023-11-11T14:09:21.667Z,65.80
2023-11-11T14:11:48.232Z,65.70
2023-11-11T14:14:14.788Z,65.70
2023-11-11T14:16:41.394Z,65.80
2023-11-11T14:19:07.993Z,65.70
2023-11-11T14:21:34.573Z,66.10
2023-11-11T14:24:01.146Z,66.10
2023-11-11T14:26:27.681Z,65.90
2023-11-11T14:28:54.286Z,65.80
2023-11-11T14:31:20.857Z,65.80
2023-11-11T14:33:57.733Z,65.70
2023-11-11T14:36:30.398Z,65.50
2023-11-11T14:38:56.910Z,65.50
2023-11-11T14:41:23.509Z,65.50
2023-11-11T14:43:50.097Z,65.50
2023-11-11T14:46:16.672Z,65.60
2023-11-11T14:48:43.255Z,65.70
2023-11-11T14:51:09.802Z,65.60
2023-11-11T14:53:36.327Z,65.60
2023-11-11T14:56:02.965Z,65.70
2023-11-11T14:58:29.576Z,65.60
2023-11-11T15:00:56.128Z,65.50
2023-11-11T15:03:22.830Z,65.50
2023-11-11T15:05:49.469Z,65.60
2023-11-11T15:08:16.030Z,65.50
2023-11-11T15:10:42.639Z,65.80
2023-11-11T15:13:17.062Z,65.60
2023-11-11T15:15:48.490Z,65.50
2023-11-11T15:18:16.492Z,65.60
2023-11-11T15:20:43.056Z,65.60
2023-11-11T15:23:09.569Z,65.60
2023-11-11T15:25:36.151Z,65.60
2023-11-11T15:28:02.727Z,65.80
2023-11-11T15:30:29.254Z,65.60
2023-11-11T15:33:00.512Z,65.70
2023-11-11T15:35:28.154Z,65.60
2023-11-11T15:37:54.705Z,65.50
2023-11-11T15:40:21.243Z,65.60
2023-11-11T15:42:47.796Z,65.60
2023-11-11T15:45:14.396Z,65.80
2023-11-11T15:47:41.193Z,65.80
2023-11-11T15:50:07.961Z,65.60
2023-11-11T15:52:34.679Z,65.50
2023-11-11T15:55:01.238Z,65.60
2023-11-11T15:57:27.776Z,65.60
2023-11-11T15:59:54.294Z,65.60
2023-11-11T16:02:22.584Z,65.60
2023-11-11T16:04:49.232Z,65.50
2023-11-11T16:07:15.790Z,65.50
2023-11-11T16:09:42.371Z,65.50
2023-11-11T16:12:08.893Z,65.50
2023-11-11T16:14:35.418Z,65.40
2023-11-11T16:17:01.991Z,65.50
2023-11-11T16:19:28.552Z,65.60
2023-11-11T16:21:55.071Z,65.60
2023-11-11T16:24:27.226Z,65.60
2023-11-11T16:26:54.587Z,65.50
2023-11-11T16:29:21.129Z,65.60
2023-11-11T16:31:47.709Z,65.50
2023-11-11T16:34:14.341Z,65.50
2023-11-11T16:36:40.976Z,65.60
2023-11-11T16:39:07.490Z,65.60
2023-11-11T16:41:34.019Z,65.50
2023-11-11T16:44:00.546Z,65.50
2023-11-11T16:46:27.129Z,65.50
2023-11-11T16:48:53.674Z,65.50
2023-11-11T16:51:20.181Z,65.50
2023-11-11T16:53:46.676Z,65.60
2023-11-11T16:56:13.199Z,65.60
2023-11-11T16:58:39.741Z,65.90
2023-11-11T17:01:06.290Z,65.60
2023-11-11T17:03:33.105Z,65.60
2023-11-11T17:05:59.754Z,65.40
2023-11-11T17:08:26.261Z,65.50
2023-11-11T17:10:52.790Z,65.40
2023-11-11T17:13:19.298Z,65.40
2023-11-11T17:15:45.837Z,65.60
2023-11-11T17:18:12.390Z,65.60
2023-11-11T17:20:38.969Z,65.40
2023-11-11T17:23:05.510Z,65.40
2023-11-11T17:25:32.073Z,65.40
2023-11-11T17:27:58.624Z,65.50
2023-11-11T17:30:25.344Z,65.30
2023-11-11T17:32:51.913Z,65.50
2023-11-11T17:35:18.472Z,65.60
2023-11-11T17:37:45.009Z,65.60
2023-11-11T17:40:11.590Z,65.50
2023-11-11T17:42:38.113Z,65.70
2023-11-11T17:45:04.630Z,65.70
2023-11-11T17:47:31.287Z,65.70
2023-11-11T17:49:57.972Z,65.50
2023-11-11T17:52:24.474Z,65.60
2023-11-11T17:54:52.622Z,65.70
2023-11-11T17:57:19.127Z,65.80
2023-11-11T17:59:45.663Z,65.80
2023-11-11T18:02:12.348Z,65.60
2023-11-11T18:04:38.947Z,65.80
2023-11-11T18:07:05.498Z,65.60
2023-11-11T18:09:32.019Z,65.70
2023-11-11T18:11:58.522Z,65.60
2023-11-11T18:14:25.048Z,65.80
2023-11-11T18:16:52.678Z,65.90
2023-11-11T18:19:19.279Z,65.80
2023-11-11T18:21:45.801Z,65.70
2023-11-11T18:24:12.317Z,65.60
2023-11-11T18:26:38.993Z,65.60
2023-11-11T18:29:10.718Z,65.60
2023-11-11T18:31:37.415Z,65.60
2023-11-11T18:34:04.000Z,65.60
2023-11-11T18:36:30.519Z,65.60
2023-11-11T18:38:57.007Z,65.50
2023-11-11T18:41:23.543Z,65.60
2023-11-11T18:43:50.087Z,65.60
2023-11-11T18:46:16.772Z,65.50
2023-11-11T18:48:43.411Z,65.80
2023-11-11T18:51:09.998Z,65.50
2023-11-11T18:53:36.540Z,65.60
2023-11-11T18:56:03.093Z,65.70
2023-11-11T18:58:29.580Z,65.80
2023-11-11T19:00:56.194Z,65.80
2023-11-11T19:03:22.889Z,65.50
2023-11-11T19:05:49.412Z,65.50
2023-11-11T19:08:15.955Z,65.60
2023-11-11T19:10:42.522Z,65.50
2023-11-11T19:13:10.656Z,65.40
2023-11-11T19:15:37.190Z,65.40
2023-11-11T19:18:03.796Z,65.50
2023-11-11T19:20:30.360Z,65.50
2023-11-11T19:22:57.072Z,65.40
2023-11-11T19:25:23.692Z,65.30
2023-11-11T19:27:50.203Z,65.40
2023-11-11T19:30:16.743Z,65.50
2023-11-11T19:32:43.273Z,65.50
2023-11-11T19:35:09.820Z,65.40
2023-11-11T19:37:36.344Z,65.50
2023-11-11T19:40:04.718Z,65.40
2023-11-11T19:42:31.226Z,65.50
2023-11-11T19:44:57.748Z,65.40
2023-11-11T19:47:24.288Z,65.50
2023-11-11T19:49:52.718Z,65.20
2023-11-11T19:52:19.253Z,65.30
2023-11-11T19:54:45.760Z,65.30
2023-11-11T19:57:12.316Z,65.30
2023-11-11T19:59:38.845Z,65.40
2023-11-11T20:02:05.413Z,65.30
2023-11-11T20:04:31.955Z,65.40
2023-11-11T20:06:58.477Z,65.50
2023-11-11T20:09:24.978Z,65.40
2023-11-11T20:11:51.495Z,65.40
2023-11-11T20:14:18.083Z,65.40
2023-11-11T20:16:44.667Z,65.10
2023-11-11T20:19:11.204Z,65.10
2023-11-11T20:21:37.734Z,65.20
2023-11-11T20:24:04.268Z,65.10
2023-11-11T20:26:30.798Z,65.20
2023-11-11T20:28:57.333Z,65.20
2023-11-11T20:31:23.912Z,65.20
2023-11-11T20:33:50.451Z,65.20
2023-11-11T20:36:16.997Z,65.40
2023-11-11T20:38:43.528Z,65.20
2023-11-11T20:41:10.103Z,65.40
2023-11-11T20:43:36.860Z,65.20
2023-11-11T20:46:03.544Z,65.30
2023-11-11T20:48:30.079Z,65.40
2023-11-11T20:50:56.592Z,65.40
2023-11-11T20:53:23.102Z,65.40
2023-11-11T20:55:49.639Z,65.20
2023-11-11T20:58:16.186Z,65.10
2023-11-11T21:00:42.859Z,65.20
2023-11-11T21:03:09.805Z,65.20
2023-11-11T21:05:36.572Z,65.10
2023-11-11T21:08:03.158Z,65.00
2023-11-11T21:10:29.762Z,65.10
2023-11-11T21:12:56.260Z,65.00
2023-11-11T21:15:22.771Z,65.00
2023-11-11T21:17:49.282Z,65.10
2023-11-11T21:20:16.183Z,65.10
2023-11-11T21:22:43.212Z,65.10
2023-11-11T21:25:09.778Z,65.00
2023-11-11T21:27:36.284Z,65.10
2023-11-11T21:30:02.805Z,65.00
2023-11-11T21:32:29.453Z,64.80
2023-11-11T21:34:56.060Z,64.90
2023-11-11T21:37:22.603Z,65.00
2023-11-11T21:39:49.105Z,64.90
2023-11-11T21:42:15.616Z,65.00
2023-11-11T21:44:42.138Z,64.70
2023-11-11T21:47:08.712Z,64.90
2023-11-11T21:49:35.261Z,64.70
2023-11-11T21:52:01.759Z,64.80
2023-11-11T21:54:28.283Z,64.70
2023-11-11T21:56:54.796Z,64.70
2023-11-11T21:59:21.469Z,64.70
2023-11-11T22:01:48.079Z,64.70
2023-11-11T22:04:14.675Z,64.70
2023-11-11T22:06:41.212Z,64.60
2023-11-11T22:09:07.804Z,64.30
2023-11-11T22:11:34.551Z,64.60
2023-11-11T22:14:01.298Z,64.50
2023-11-11T22:16:27.906Z,64.60
2023-11-11T22:18:54.454Z,64.60
2023-11-11T22:21:21.042Z,64.80
2023-11-11T22:23:47.561Z,64.70
2023-11-11T22:26:14.146Z,64.70
2023-11-11T22:28:40.723Z,64.80
2023-11-11T22:31:07.259Z,64.70
2023-11-11T22:33:33.776Z,64.60
2023-11-11T22:36:00.312Z,64.30
2023-11-11T22:38:26.853Z,64.50
2023-11-11T22:40:53.412Z,64.30
2023-11-11T22:43:19.967Z,64.60
2023-11-11T22:45:46.545Z,64.50
2023-11-11T22:48:13.080Z,64.50
2023-11-11T22:50:39.600Z,64.70
2023-11-11T22:53:06.178Z,64.70
2023-11-11T22:55:32.709Z,64.40
2023-11-11T22:57:59.244Z,64.50
2023-11-11T23:00:25.772Z,64.70
2023-11-11T23:02:52.381Z,64.60
2023-11-11T23:05:19.044Z,64.50
2023-11-11T23:07:45.629Z,64.60
2023-11-11T23:10:12.174Z,64.20
2023-11-11T23:12:38.685Z,64.40
2023-11-11T23:15:05.205Z,64.30
2023-11-11T23:17:31.932Z,64.10
2023-11-11T23:19:58.600Z,64.30
2023-11-11T23:22:25.120Z,64.60
2023-11-11T23:24:51.692Z,64.50
2023-11-11T23:27:18.190Z,64.30
2023-11-11T23:29:44.711Z,64.40
2023-11-11T23:32:11.347Z,64.40
2023-11-11T23:34:37.894Z,64.50
2023-11-11T23:37:04.389Z,64.40
2023-11-11T23:39:30.907Z,64.40
2023-11-11T23:41:57.432Z,64.40
2023-11-11T23:44:24.048Z,64.50
2023-11-11T23:46:50.692Z,64.70
2023-11-11T23:49:17.351Z,64.50
2023-11-11T23:51:43.862Z,64.50
2023-11-11T23:54:10.385Z,64.40
2023-11-11T23:56:36.900Z,64.40
2023-11-11T23:59:03.447Z,64.30
